Langdon, KS (67583)

7:08 PM CDT on August 21, 2014 (GMT -0500)
Pratt Industrial | Change Station
CLOSE
Current Station
Airport
Location: Pratt,
Elevation: 1952 ft
Nearby Weather Stations

Elev 1952 ft 37.70 °N, 98.75 °W | Updated 13 minutes ago

Clear
Clear
95 °F
Feels Like 95 °F
N
23
Wind Variable Wind from South
Gusts 26 mph

Today
High -- | Low -- °F
--% Chance of Precip.
Yesterday
High -- | Low -- °F
Precip. -- in
6:54 AM 8:18 PM
Waning Crescent, 11% visible
Pressure 29.86 in
Visibility 10.0 miles
Clouds Clear
Heat Index 95 °F
Dew Point 61 °F
Humidity 32%
Rainfall 0.00 in
Snow Depth Not available.
UV 1 out of 12
Pollen 11.60 out of 12
Air Quality Not available.
Flu Activity Not available.
METAR KPTT 212355Z AUTO 19020G23KT 10SM CLR 35/16 A2986 RMK AO2

More Conditions Fewer Conditions

Pressure 29.86 in
Visibility 10.0 miles
Clouds Clear
Heat Index 95 °F
Dew Point 61 °F
Humidity 32%
Rainfall 0.00 in
Snow Depth Not available.
UV 1 out of 12
Pollen 11.60 out of 12
Air Quality Not available.
Flu Activity Not available.
METAR KPTT 212355Z AUTO 19020G23KT 10SM CLR 35/16 A2986 RMK AO2

More Conditions Fewer Conditions

10-Day Weather Forecast

Almanac

Astronomy

Aug. 21, 2014 Rise Set
Actual Time 6:54 AM CDT 8:18 PM CDT
Civil Twilight 6:26 AM CDT 8:45 PM CDT
Nautical Twilight 5:53 AM CDT 9:18 PM CDT
Astronomical Twilight 5:18 AM CDT 9:53 PM CDT
Moon 3:27 AM CDT (8/21) 5:46 PM CDT (8/21)
Length of Visible Light 14h 19m
Length of Day
13h 24m
Tomorrow will be 2m 14s shorter.
Waning Crescent, 11% of the Moon is Illuminated
Today
Waning Crescent
Aug 25
New
Sep 2
First Quarter
Sep 8
Full
Sep 15
Last Quarter

Today's Extremes

State Highs State Lows

Community

WunderPhotos

Upload Photos

1,746,059 photos uploaded!

Nearby

Snow Depth

Station Depth Elevation
No new snow has been reported.

Earthquake Activity

City Distance Mag. Time & Date
Medford, Oklahoma 74 miles 2.7 2:28 AM CDT
2014-08-17
Medford, Oklahoma 73 miles 3.5 1:31 AM CDT
2014-08-17
Medford, Oklahoma 74 miles 3.8 1:18 AM CDT
2014-08-17
Medford, Oklahoma 83 miles 3.0 9:13 PM CDT
2014-08-16
Minimum magnitude displayed is 2.5.

Coastal Water Temperatures

Place Temperature
No Stations Reporting

Nearby Weather Stations